Time;durP1;ratioP1;P1;durP2;ratioP2;P2;SDS_P1;SDS_P2;PMS_P1;PMS_P2;Temp;Humidity;BMP_temperature;BMP_pressure;BME280_temperature;BME280_humidity;BME280_pressure;Samples;Min_cycle;Max_cycle;Signal;HPM_P1;HPM_P2
2021/08/04 00:00:25;;;;;;;4.05;2.22;;;;;;;15.43;nan;100073.22;5049920;28;20041;-78
2021/08/04 00:02:50;;;;;;;3.47;2.13;;;;;;;;;;5050853;28;20048;-78
2021/08/04 00:05:16;;;;;;;3.45;2.13;;;;;;;;;;5050463;28;20037;-78
2021/08/04 00:07:41;;;;;;;3.30;2.30;;;;;;;;;;5050507;28;20033;-78
2021/08/04 00:10:06;;;;;;;2.83;2.00;;;;;;;;;;5048538;28;20119;-78
2021/08/04 00:12:31;;;;;;;3.70;2.22;;;;;;;;;;5049076;28;20314;-78
2021/08/04 00:14:57;;;;;;;5.80;2.53;;;;;;;;;;5050702;28;20037;-78
2021/08/04 00:17:22;;;;;;;4.20;2.40;;;;;;;;;;5051314;28;20041;-78
2021/08/04 00:19:47;;;;;;;4.67;2.20;;;;;;;15.43;nan;100109.69;5050163;28;20028;-78
2021/08/04 00:22:12;;;;;;;3.75;2.42;;;;;;;;;;5049776;28;20452;-77
2021/08/04 00:24:37;;;;;;;3.40;2.27;;;;;;;15.40;nan;100104.78;5050354;28;20033;-78
2021/08/04 00:27:03;;;;;;;3.00;2.40;;;;;;;15.39;nan;100077.28;5050184;28;20025;-78
2021/08/04 00:29:28;;;;;;;3.00;1.95;;;;;;;15.38;nan;100085.50;5049061;28;20184;-78
2021/08/04 00:31:54;;;;;;;2.50;1.85;;;;;;;;;;5050758;28;20051;-78
2021/08/04 00:34:19;;;;;;;2.97;2.10;;;;;;;;;;5048354;28;20037;-78
2021/08/04 00:36:44;;;;;;;3.37;2.17;;;;;;;;;;5050179;28;20029;-78
2021/08/04 00:39:09;;;;;;;2.70;2.00;;;;;;;;;;5049597;28;20037;-77
2021/08/04 00:41:40;;;;;;;3.40;1.90;;;;;;;15.39;nan;100081.78;5049008;28;20081;-78
2021/08/04 00:44:06;;;;;;;2.63;1.95;;;;;;;15.38;nan;100064.16;5048330;28;20074;-78
2021/08/04 00:46:31;;;;;;;2.83;2.08;;;;;;;;;;5050081;28;20044;-78
2021/08/04 00:48:56;;;;;;;3.40;2.20;;;;;;;;;;5049418;28;20051;-79
2021/08/04 00:51:21;;;;;;;3.50;2.40;;;;;;;;;;5053798;28;20045;-78
2021/08/04 00:53:47;;;;;;;3.23;1.97;;;;;;;15.39;nan;100073.81;5053324;28;20288;-77
2021/08/04 00:56:12;;;;;;;2.60;1.90;;;;;;;;;;5052810;28;20282;-78
2021/08/04 00:58:39;;;;;;;3.70;2.10;;;;;;;;;;5053207;28;20036;-78
2021/08/04 01:01:22;;;;;;;2.88;2.10;;;;;;;15.38;nan;100065.00;5052884;28;20029;-78
2021/08/04 01:03:59;;;;;;;4.05;2.35;;;;;;;;;;5052983;28;20034;-78
2021/08/04 01:06:36;;;;;;;3.25;1.85;;;;;;;15.38;nan;100086.31;5033740;28;20045;-77
2021/08/04 01:09:03;;;;;;;4.03;2.17;;;;;;;15.40;nan;100091.44;5053850;28;20067;-78
2021/08/04 01:11:38;;;;;;;2.30;1.80;;;;;;;15.41;nan;100085.91;5053676;28;20079;-78
2021/08/04 01:14:05;;;;;;;3.50;2.08;;;;;;;;;;5053763;28;20135;-78
2021/08/04 01:16:38;;;;;;;3.17;2.17;;;;;;;;;;5052989;28;20663;-78
2021/08/04 01:19:15;;;;;;;5.82;2.30;;;;;;;;;;5053138;28;20127;-77
2021/08/04 01:21:40;;;;;;;2.85;1.90;;;;;;;;;;5052429;28;20047;-77
2021/08/04 01:24:17;;;;;;;2.77;2.20;;;;;;;15.41;nan;100074.44;5051275;28;20489;-77
2021/08/04 01:26:43;;;;;;;3.53;1.92;;;;;;;;;;5052280;28;20044;-76
2021/08/04 01:29:10;;;;;;;3.22;2.17;;;;;;;;;;5050922;28;20029;-77
2021/08/04 01:31:37;;;;;;;2.55;2.00;;;;;;;15.40;nan;100088.78;5050847;28;20018;-77
2021/08/04 01:34:03;;;;;;;2.75;2.08;;;;;;;;;;5052224;28;20036;-77
2021/08/04 01:36:29;;;;;;;2.67;2.10;;;;;;;;;;5051584;28;20037;-77
2021/08/04 01:38:55;;;;;;;4.38;2.13;;;;;;;15.39;nan;100141.22;5052279;28;20068;-76
2021/08/04 01:41:20;;;;;;;3.05;2.20;;;;;;;15.44;nan;100068.72;5052138;28;20044;-76
2021/08/04 01:43:47;;;;;;;2.88;2.17;;;;;;;;;;5052607;28;20037;-77
2021/08/04 01:46:13;;;;;;;3.53;1.90;;;;;;;;;;5051714;28;20063;-77
2021/08/04 01:48:39;;;;;;;5.38;2.67;;;;;;;;;;5052895;28;20047;-77
2021/08/04 01:51:09;;;;;;;3.22;2.50;;;;;;;15.44;nan;100058.88;5050549;28;20537;-77
2021/08/04 01:53:35;;;;;;;3.00;2.15;;;;;;;;;;5050861;28;20455;-78
2021/08/04 01:56:01;;;;;;;3.92;2.50;;;;;;;15.43;nan;100053.75;5051786;28;20033;-77
2021/08/04 01:58:26;;;;;;;3.00;2.13;;;;;;;15.39;nan;100113.75;5052518;28;20088;-76
2021/08/04 02:00:52;;;;;;;3.97;2.30;;;;;;;15.44;nan;100106.81;5050881;28;20116;-77
2021/08/04 02:03:17;;;;;;;3.47;1.90;;;;;;;;;;5052332;28;20073;-76
2021/08/04 02:05:44;;;;;;;2.77;1.83;;;;;;;15.39;nan;100063.97;5051864;28;20140;-77
2021/08/04 02:08:13;;;;;;;4.53;2.28;;;;;;;15.45;nan;100075.69;5050940;28;20029;-76
2021/08/04 02:10:38;;;;;;;2.85;2.00;;;;;;;;;;5051418;28;20075;-77
2021/08/04 02:13:22;;;;;;;3.80;2.00;;;;;;;15.45;nan;100059.72;5052121;28;20057;-77
2021/08/04 02:15:55;;;;;;;4.97;2.10;;;;;;;15.47;nan;100063.81;5051645;28;20057;-78
2021/08/04 02:18:25;;;;;;;2.58;1.95;;;;;;;15.36;nan;100068.88;5051139;28;20029;-77
2021/08/04 02:20:51;;;;;;;2.47;1.98;;;;;;;;;;5049560;28;20044;-77
2021/08/04 02:23:21;;;;;;;2.83;1.90;;;;;;;;;;5051142;28;20045;-77
2021/08/04 02:25:55;;;;;;;2.97;2.10;;;;;;;15.41;nan;100064.59;5051212;28;20103;-77
2021/08/04 02:28:34;;;;;;;3.13;2.20;;;;;;;15.46;nan;100067.50;5037326;28;20060;-77
2021/08/04 02:31:01;;;;;;;4.10;2.55;;;;;;;15.41;nan;100058.44;5039017;28;20521;-77
2021/08/04 02:33:27;;;;;;;3.58;2.20;;;;;;;;;;5050565;28;20062;-77
2021/08/04 02:35:52;;;;;;;3.55;2.30;;;;;;;;;;5051435;28;20034;-77
2021/08/04 02:38:18;;;;;;;3.33;2.33;;;;;;;15.39;nan;100050.63;5050504;28;20428;-77
2021/08/04 02:40:44;;;;;;;3.40;2.30;;;;;;;15.38;nan;100123.59;5051642;28;20102;-77
2021/08/04 02:43:10;;;;;;;4.93;2.85;;;;;;;15.34;nan;100053.06;5049796;28;20047;-77
2021/08/04 02:45:36;;;;;;;4.15;2.20;;;;;;;15.36;nan;100060.88;5051069;28;20074;-77
2021/08/04 02:48:02;;;;;;;3.40;2.30;;;;;;;15.35;nan;100064.53;5050737;28;20025;-78
2021/08/04 02:50:31;;;;;;;3.60;2.40;;;;;;;15.32;nan;100065.75;5050932;28;20098;-77
2021/08/04 02:52:56;;;;;;;3.80;2.40;;;;;;;;;;5050032;28;20529;-77
2021/08/04 02:55:22;;;;;;;4.85;2.50;;;;;;;15.31;nan;100069.44;5049926;28;20071;-77
2021/08/04 02:57:47;;;;;;;4.97;2.33;;;;;;;;;;5050753;28;20030;-77
2021/08/04 03:00:12;;;;;;;2.87;2.20;;;;;;;15.36;nan;100060.88;5050072;28;20040;-77
2021/08/04 03:02:38;;;;;;;;;;;;;;;15.34;nan;100063.72;5051416;28;20028;-77
2021/08/04 03:05:04;;;;;;;3.17;2.50;;;;;;;15.32;nan;100060.44;5053110;28;19984;-77
2021/08/04 03:07:29;;;;;;;3.10;2.25;;;;;;;;;;5052968;28;20291;-77
2021/08/04 03:09:54;;;;;;;3.22;2.50;;;;;;;;;;5050373;28;20517;-77
2021/08/04 03:12:19;;;;;;;3.83;2.40;;;;;;;;;;5050568;28;20052;-77
2021/08/04 03:14:46;;;;;;;4.33;2.47;;;;;;;15.37;nan;100041.19;5050811;28;20029;-78
2021/08/04 03:17:11;;;;;;;5.00;3.10;;;;;;;;;;5051475;28;20394;-77
2021/08/04 03:19:36;;;;;;;5.57;3.10;;;;;;;;;;5051436;28;20033;-78
2021/08/04 03:22:02;;;;;;;3.60;2.60;;;;;;;15.42;nan;100071.59;5050574;28;20803;-78
2021/08/04 03:24:27;;;;;;;3.70;2.20;;;;;;;15.38;nan;100069.50;5050490;28;20110;-77
2021/08/04 03:26:53;;;;;;;3.60;2.70;;;;;;;;;;5050577;28;20029;-77
2021/08/04 03:29:18;;;;;;;4.87;2.67;;;;;;;15.37;nan;100058.00;5050095;28;20106;-78
2021/08/04 03:31:43;;;;;;;4.20;2.40;;;;;;;15.35;nan;100128.47;5050681;28;20048;-78
2021/08/04 03:34:09;;;;;;;3.63;2.47;;;;;;;15.36;nan;100067.03;5048164;28;20041;-77
2021/08/04 03:36:34;;;;;;;3.05;2.35;;;;;;;;;;5050202;28;20444;-77
2021/08/04 03:38:59;;;;;;;4.23;2.60;;;;;;;;;;5049762;28;20060;-78
2021/08/04 03:41:24;;;;;;;3.63;2.63;;;;;;;15.36;nan;100066.22;5050508;28;20037;-77
2021/08/04 03:43:50;;;;;;;3.72;2.67;;;;;;;;;;5049828;28;20449;-77
2021/08/04 03:46:15;;;;;;;7.13;2.78;;;;;;;15.40;nan;100083.47;5049816;28;20053;-77
2021/08/04 03:48:40;;;;;;;3.65;2.33;;;;;;;15.41;nan;100058.44;5048981;28;20513;-77
2021/08/04 03:51:05;;;;;;;3.47;2.30;;;;;;;;;;5049635;28;20044;-77
2021/08/04 03:53:31;;;;;;;3.73;2.50;;;;;;;15.42;nan;100201.28;5049838;28;20048;-77
2021/08/04 03:55:56;;;;;;;3.78;2.45;;;;;;;;;;5049927;28;20116;-77
2021/08/04 03:58:22;;;;;;;3.90;2.20;;;;;;;;;;5050078;28;20049;-77
2021/08/04 04:00:47;;;;;;;3.77;2.23;;;;;;;;;;5049639;28;20036;-78
2021/08/04 04:03:12;;;;;;;5.00;2.63;;;;;;;15.42;nan;100066.25;5045326;28;20489;-77
2021/08/04 04:05:38;;;;;;;3.88;2.55;;;;;;;15.38;nan;100072.16;5047425;28;20636;-77
2021/08/04 04:08:03;;;;;;;3.97;2.80;;;;;;;;;;5049819;28;20033;-77
2021/08/04 04:10:29;;;;;;;3.40;2.72;;;;;;;15.39;nan;100071.94;5049154;28;20565;-77
2021/08/04 04:12:54;;;;;;;3.15;2.38;;;;;;;15.38;nan;100059.66;5049236;28;20044;-77
2021/08/04 04:15:19;;;;;;;3.80;2.47;;;;;;;;;;5049074;28;20035;-77
2021/08/04 04:17:44;;;;;;;4.63;2.60;;;;;;;;;;5049497;28;20039;-77
2021/08/04 04:20:12;;;;;;;4.47;2.40;;;;;;;;;;5038130;28;20375;-78
2021/08/04 04:22:37;;;;;;;6.10;2.58;;;;;;;15.40;nan;100115.44;5050511;28;20272;-76
2021/08/04 04:25:03;;;;;;;4.22;2.67;;;;;;;;;;5051887;28;20039;-77
2021/08/04 04:27:28;;;;;;;3.78;2.42;;;;;;;15.34;nan;100084.22;5054806;28;20505;-77
2021/08/04 04:29:53;;;;;;;4.75;2.80;;;;;;;;;;5048157;28;20438;-77
2021/08/04 04:32:19;;;;;;;3.50;2.42;;;;;;;15.35;nan;100064.53;5054233;28;20401;-77
2021/08/04 04:34:44;;;;;;;3.30;2.80;;;;;;;15.35;nan;100085.84;5054635;28;20029;-77
2021/08/04 04:37:09;;;;;;;3.00;2.40;;;;;;;;;;5054042;28;20033;-77
2021/08/04 04:39:34;;;;;;;7.27;2.90;;;;;;;15.37;nan;100111.28;5054490;28;20505;-77
2021/08/04 04:42:00;;;;;;;4.68;2.67;;;;;;;;;;5053795;28;20040;-77
2021/08/04 04:44:25;;;;;;;3.93;2.50;;;;;;;15.45;nan;100204.41;5051701;28;20052;-78
2021/08/04 04:46:50;;;;;;;;;;;;;;;15.47;nan;100082.47;5054627;28;20139;-77
2021/08/04 04:49:16;;;;;;;4.90;2.83;;;;;;;15.45;nan;100094.34;5053179;28;19988;-77
2021/08/04 04:51:41;;;;;;;4.70;2.90;;;;;;;;;;5054248;28;20234;-77
2021/08/04 04:54:06;;;;;;;5.03;2.50;;;;;;;15.36;nan;100093.66;5053169;28;20411;-77
2021/08/04 04:56:31;;;;;;;3.42;2.22;;;;;;;;;;5053620;28;20283;-78
2021/08/04 04:58:56;;;;;;;4.80;2.67;;;;;;;;;;5053733;28;20029;-76
2021/08/04 05:01:22;;;;;;;5.53;3.00;;;;;;;;;;5053520;28;20087;-77
2021/08/04 05:03:47;;;;;;;3.30;2.67;;;;;;;15.47;nan;100095.81;5055080;28;20120;-77
2021/08/04 05:06:13;;;;;;;3.92;2.55;;;;;;;;;;5052609;28;20037;-76
2021/08/04 05:08:38;;;;;;;2.53;2.00;;;;;;;;;;5052974;28;20429;-77
2021/08/04 05:11:03;;;;;;;3.17;2.50;;;;;;;;;;5054422;28;20028;-77
2021/08/04 05:13:29;;;;;;;4.78;3.08;;;;;;;15.68;nan;100124.25;5053672;28;20124;-77
2021/08/04 05:15:54;;;;;;;3.97;2.90;;;;;;;;;;5053737;28;20111;-77
2021/08/04 05:18:19;;;;;;;3.47;2.70;;;;;;;15.75;nan;100120.81;5055245;28;20120;-77
2021/08/04 05:20:45;;;;;;;2.92;2.20;;;;;;;15.72;nan;100124.69;5052345;28;20120;-77
2021/08/04 05:23:10;;;;;;;3.97;2.42;;;;;;;;;;5053668;28;20040;-77
2021/08/04 05:25:36;;;;;;;4.30;2.53;;;;;;;15.74;nan;100128.00;5053638;28;20083;-77
2021/08/04 05:28:02;;;;;;;4.90;2.70;;;;;;;15.73;nan;100184.16;5055096;28;20271;-78
2021/08/04 05:30:27;;;;;;;4.72;2.80;;;;;;;15.74;nan;100129.84;5053640;28;20039;-77
2021/08/04 05:32:52;;;;;;;3.25;2.58;;;;;;;;;;5055661;28;20060;-77
2021/08/04 05:35:17;;;;;;;3.50;2.67;;;;;;;15.75;nan;100126.13;5054385;28;20041;-77
2021/08/04 05:37:43;;;;;;;;;;;;;;;15.74;nan;100112.00;5055909;28;20029;-77
2021/08/04 05:40:08;;;;;;;5.80;3.10;;;;;;;;;;5046864;28;19952;-78
2021/08/04 05:42:33;;;;;;;3.72;2.80;;;;;;;;;;5041689;28;20516;-76
2021/08/04 05:44:59;;;;;;;2.80;2.30;;;;;;;15.77;nan;100111.59;5051350;28;20401;-77
2021/08/04 05:47:24;;;;;;;3.67;2.70;;;;;;;;;;5053504;28;20501;-76
2021/08/04 05:49:49;;;;;;;4.78;2.90;;;;;;;;;;5054375;28;20070;-77
2021/08/04 05:52:15;;;;;;;4.87;2.57;;;;;;;;;;5054708;28;20032;-77
2021/08/04 05:54:40;;;;;;;4.05;3.28;;;;;;;15.94;nan;100106.75;5054114;28;20292;-77
2021/08/04 05:57:05;;;;;;;4.57;3.20;;;;;;;;;;5056923;28;20032;-76
2021/08/04 05:59:31;;;;;;;5.68;3.35;;;;;;;;;;5056684;28;20095;-77
2021/08/04 06:01:56;;;;;;;4.63;2.78;;;;;;;16.07;nan;100181.53;5059925;28;20044;-77
2021/08/04 06:04:21;;;;;;;4.35;3.20;;;;;;;;;;5068399;28;20041;-77
2021/08/04 06:06:48;;;;;;;4.20;3.17;;;;;;;;;;5071138;28;20040;-77
2021/08/04 06:09:13;;;;;;;3.80;2.80;;;;;;;16.13;nan;100274.09;5070928;28;20114;-76
2021/08/04 06:11:39;;;;;;;4.13;2.83;;;;;;;16.25;nan;100298.38;5065078;28;20263;-77
2021/08/04 06:14:04;;;;;;;5.10;3.20;;;;;;;16.30;nan;100308.47;5044999;28;20621;-77
2021/08/04 06:16:29;;;;;;;7.07;3.10;;;;;;;16.25;nan;100311.72;5050712;28;20113;-76
2021/08/04 06:18:56;;;;;;;4.57;2.42;;;;;;;16.25;nan;100309.06;5051720;28;20131;-77
2021/08/04 06:21:21;;;;;;;3.95;2.92;;;;;;;16.39;nan;100306.50;5052198;28;20036;-77
2021/08/04 06:23:48;;;;;;;6.63;2.80;;;;;;;16.47;nan;100309.00;5051574;28;20108;-77
2021/08/04 06:26:14;;;;;;;3.65;2.90;;;;;;;16.39;nan;100306.50;5050559;28;20044;-77
2021/08/04 06:28:40;;;;;;;3.83;2.70;;;;;;;16.41;nan;100304.47;5051633;28;20036;-77
2021/08/04 06:31:05;;;;;;;5.28;3.13;;;;;;;16.42;nan;100309.59;5050950;28;20486;-77
2021/08/04 06:33:30;;;;;;;4.20;2.88;;;;;;;16.37;nan;100313.88;5050033;28;20043;-76
2021/08/04 06:35:55;;;;;;;4.60;3.15;;;;;;;16.44;nan;100314.72;5049864;28;20029;-77
2021/08/04 06:41:42;;;;;;;;;;;;;;;16.63;nan;100314.03;5047435;28;20052;-77
2021/08/04 06:44:08;;;;;;;3.90;2.90;;;;;;;16.63;nan;100318.53;5049264;28;19916;-77
2021/08/04 06:46:34;;;;;;;3.70;2.65;;;;;;;16.58;nan;100312.97;5050357;28;20637;-76
2021/08/04 06:49:01;;;;;;;3.40;2.25;;;;;;;16.64;nan;100315.69;5050133;28;20406;-77
2021/08/04 06:51:27;;;;;;;3.55;2.40;;;;;;;16.75;nan;100317.78;5049614;28;20033;-76
2021/08/04 06:53:54;;;;;;;4.57;2.60;;;;;;;16.92;nan;100320.16;5050902;28;20033;-77
2021/08/04 06:56:19;;;;;;;3.22;2.58;;;;;;;16.93;nan;100319.16;5050059;28;20039;-77
2021/08/04 06:58:44;;;;;;;4.38;2.50;;;;;;;16.94;nan;100310.09;5050352;28;20052;-77
2021/08/04 07:01:09;;;;;;;4.03;3.00;;;;;;;16.94;nan;100316.28;5050200;28;20029;-77
2021/08/04 07:03:38;;;;;;;3.33;2.45;;;;;;;17.00;nan;100314.66;5049852;28;20086;-77
2021/08/04 07:06:03;;;;;;;3.78;2.50;;;;;;;17.04;nan;100317.75;5049872;28;20080;-77
2021/08/04 07:08:28;;;;;;;4.13;2.72;;;;;;;16.99;nan;100315.66;5048625;28;20060;-77
2021/08/04 07:10:54;;;;;;;4.80;2.75;;;;;;;16.94;nan;100316.28;5049319;28;20039;-76
2021/08/04 07:13:19;;;;;;;3.08;2.35;;;;;;;16.97;nan;100315.03;5049464;28;20501;-77
2021/08/04 07:15:44;;;;;;;3.58;2.33;;;;;;;16.95;nan;100322.47;5049330;28;20033;-77
2021/08/04 07:18:10;;;;;;;3.10;2.58;;;;;;;17.11;nan;100321.28;5048643;28;20245;-77
2021/08/04 07:20:37;;;;;;;3.08;2.20;;;;;;;17.34;nan;100324.44;5049762;28;20036;-77
2021/08/04 07:23:03;;;;;;;4.72;2.95;;;;;;;17.61;nan;100316.47;5049843;28;20111;-76
2021/08/04 07:25:29;;;;;;;3.33;2.78;;;;;;;17.78;nan;100323.13;5049201;28;20041;-76
2021/08/04 07:27:54;;;;;;;3.55;2.50;;;;;;;17.92;nan;100323.94;5049885;28;20089;-76
2021/08/04 07:30:19;;;;;;;4.32;2.58;;;;;;;18.02;nan;100321.72;5048484;28;20033;-77
2021/08/04 07:32:45;;;;;;;2.85;2.10;;;;;;;17.87;nan;100329.09;5049191;28;20075;-77
2021/08/04 07:35:10;;;;;;;4.97;2.92;;;;;;;17.93;nan;100325.63;5048977;28;20083;-77
2021/08/04 07:37:36;;;;;;;4.40;2.88;;;;;;;17.94;nan;100326.44;5048990;28;20033;-77
2021/08/04 07:40:04;;;;;;;5.90;2.63;;;;;;;17.96;nan;100322.53;5049263;28;20032;-77
2021/08/04 07:42:29;;;;;;;4.18;2.50;;;;;;;18.00;nan;100326.44;5048964;28;20040;-76
2021/08/04 07:44:57;;;;;;;3.97;2.60;;;;;;;18.01;nan;100328.06;5048922;28;20033;-76
2021/08/04 07:47:22;;;;;;;3.92;2.67;;;;;;;17.93;nan;100336.31;5049659;28;20124;-77
2021/08/04 07:49:48;;;;;;;4.72;2.92;;;;;;;18.01;nan;100330.75;5048575;28;20796;-77
2021/08/04 07:52:13;;;;;;;4.28;2.83;;;;;;;18.00;nan;100330.97;5045298;28;20044;-76
2021/08/04 07:54:39;;;;;;;4.03;2.65;;;;;;;18.05;nan;100336.53;5049085;28;20513;-77
2021/08/04 07:57:05;;;;;;;3.22;2.60;;;;;;;18.24;nan;100327.66;5037415;28;20076;-77
2021/08/04 07:59:30;;;;;;;3.22;2.50;;;;;;;18.42;nan;100329.72;5033319;28;20029;-76
2021/08/04 08:01:56;;;;;;;4.22;2.80;;;;;;;18.55;nan;100325.38;5050028;28;20523;-77
2021/08/04 08:04:21;;;;;;;2.88;2.03;;;;;;;18.92;nan;100313.13;5048944;28;20052;-77
2021/08/04 08:06:46;;;;;;;5.65;2.38;;;;;;;19.86;nan;100324.22;5048880;28;20116;-78
2021/08/04 08:09:13;;;;;;;4.35;2.67;;;;;;;20.33;nan;100324.63;5049855;28;20089;-76
2021/08/04 08:11:39;;;;;;;3.30;2.40;;;;;;;20.60;nan;100329.78;5049783;28;20037;-77
2021/08/04 08:14:05;;;;;;;4.45;2.50;;;;;;;20.44;nan;100318.53;5048986;28;20504;-77
2021/08/04 08:16:30;;;;;;;3.15;2.47;;;;;;;20.37;nan;100325.84;5047846;28;20037;-77
2021/08/04 08:18:56;;;;;;;4.15;3.10;;;;;;;20.17;nan;100327.91;5049773;28;20056;-77
2021/08/04 08:21:23;;;;;;;3.88;2.78;;;;;;;19.79;nan;100324.25;5049768;28;20029;-77
2021/08/04 08:23:49;;;;;;;4.22;2.83;;;;;;;19.58;nan;100322.72;5029405;28;20038;-77
2021/08/04 08:26:15;;;;;;;3.67;2.78;;;;;;;19.57;nan;100321.06;5028595;28;20383;-76
2021/08/04 08:28:40;;;;;;;4.70;2.42;;;;;;;19.66;nan;100318.94;5029316;28;20038;-76
2021/08/04 08:31:05;;;;;;;3.15;2.28;;;;;;;19.98;nan;100325.16;5027782;28;20109;-76
2021/08/04 08:33:31;;;;;;;4.75;2.72;;;;;;;20.32;nan;100325.69;5040974;28;20037;-76
2021/08/04 08:35:56;;;;;;;3.90;2.83;;;;;;;20.41;nan;100323.53;5048564;28;20583;-76
2021/08/04 08:38:21;;;;;;;3.42;2.40;;;;;;;20.67;nan;100314.44;5047836;28;20561;-76
2021/08/04 08:40:47;;;;;;;3.53;2.80;;;;;;;20.85;nan;100314.41;5047502;28;20039;-77
2021/08/04 08:43:16;;;;;;;4.88;3.22;;;;;;;20.89;nan;100312.09;5047172;28;20490;-77
2021/08/04 08:45:41;;;;;;;4.35;2.75;;;;;;;21.38;nan;100310.22;5047109;28;20041;-76
2021/08/04 08:48:07;;;;;;;2.97;2.40;;;;;;;21.19;nan;100309.47;5048043;28;20053;-76
2021/08/04 08:50:33;;;;;;;3.25;2.25;;;;;;;21.45;nan;100310.16;5048718;28;20036;-76
2021/08/04 08:52:58;;;;;;;3.78;1.98;;;;;;;21.42;nan;100304.19;5047121;28;20125;-76
2021/08/04 08:55:25;;;;;;;2.60;1.90;;;;;;;21.65;nan;100297.25;5046820;28;20536;-76
2021/08/04 08:57:51;;;;;;;2.65;2.15;;;;;;;21.89;nan;100294.59;5048574;28;20040;-76
2021/08/04 09:00:16;;;;;;;2.95;2.22;;;;;;;22.17;nan;100293.91;5047771;28;20548;-76
2021/08/04 09:02:43;;;;;;;4.32;2.20;;;;;;;21.63;nan;100286.69;5049083;28;20541;-76
2021/08/04 09:05:11;;;;;;;2.00;1.70;;;;;;;22.13;nan;100296.25;5049547;28;20029;-76
2021/08/04 09:07:39;;;;;;;4.38;2.13;;;;;;;22.07;nan;100294.47;5049544;28;20033;-76
2021/08/04 09:10:20;;;;;;;4.35;2.25;;;;;;;21.89;nan;100291.91;5049340;28;20766;-76
2021/08/04 09:12:49;;;;;;;2.75;2.03;;;;;;;23.45;nan;100294.69;5052061;28;20044;-76
2021/08/04 09:15:28;;;;;;;2.83;2.03;;;;;;;23.96;nan;100294.78;5052021;28;20387;-77
2021/08/04 09:18:06;;;;;;;2.20;1.75;;;;;;;23.54;nan;100290.53;5052673;28;20033;-76
2021/08/04 09:20:41;;;;;;;2.85;2.10;;;;;;;24.01;nan;100285.94;5050742;28;20033;-76
2021/08/04 09:23:14;;;;;;;2.70;1.85;;;;;;;24.44;nan;100285.22;5044663;28;20054;-76
2021/08/04 09:25:39;;;;;;;2.20;1.30;;;;;;;25.12;nan;100280.41;5054236;28;20406;-77
2021/08/04 09:28:08;;;;;;;5.78;2.10;;;;;;;25.74;nan;100278.28;5052343;28;20072;-77
2021/08/04 09:30:36;;;;;;;2.40;1.70;;;;;;;25.12;nan;100266.03;5053073;28;20052;-77
2021/08/04 09:33:25;;;;;;;3.63;1.50;;;;;;;24.67;nan;100269.84;5053097;28;20087;-77
2021/08/04 09:35:53;;;;;;;3.22;1.70;;;;;;;24.14;nan;100280.19;5051094;28;20165;-77
2021/08/04 09:38:19;;;;;;;2.00;1.45;;;;;;;23.65;nan;100277.25;5052292;28;20029;-77
2021/08/04 09:41:07;;;;;;;2.42;1.42;;;;;;;23.07;nan;100276.44;5052902;28;20055;-77
2021/08/04 09:43:33;;;;;;;2.88;2.00;;;;;;;23.10;nan;100271.41;5050637;28;20038;-76
2021/08/04 09:45:58;;;;;;;2.13;1.65;;;;;;;22.63;nan;100271.53;5051340;28;20448;-76
2021/08/04 09:48:25;;;;;;;2.97;1.77;;;;;;;22.51;nan;100281.50;5049714;28;20033;-76
2021/08/04 09:51:03;;;;;;;2.40;1.80;;;;;;;22.40;nan;100279.63;5051796;28;20051;-77
2021/08/04 09:53:36;;;;;;;3.30;1.70;;;;;;;22.39;nan;100269.94;5051320;28;20025;-76
2021/08/04 09:56:03;;;;;;;2.50;1.63;;;;;;;22.38;nan;100268.28;5050947;28;20045;-76
2021/08/04 09:58:28;;;;;;;2.88;2.15;;;;;;;22.37;nan;100264.75;5051547;28;20031;-76
2021/08/04 10:00:53;;;;;;;3.10;2.10;;;;;;;22.27;nan;100265.34;5051283;28;20029;-76
2021/08/04 10:03:19;;;;;;;2.50;1.88;;;;;;;22.21;nan;100266.28;5050842;28;20087;-76
2021/08/04 10:05:44;;;;;;;4.10;2.00;;;;;;;22.21;nan;100260.91;5050789;28;20040;-76
2021/08/04 10:08:10;;;;;;;3.28;2.03;;;;;;;;;;5050576;28;20434;-76
2021/08/04 10:10:41;;;;;;;2.75;1.90;;;;;;;22.32;nan;100255.75;5050707;28;20090;-76
2021/08/04 10:13:09;;;;;;;1.98;1.50;;;;;;;22.15;nan;100251.06;5050727;28;20155;-77
2021/08/04 10:15:43;;;;;;;3.15;1.70;;;;;;;22.44;nan;100249.28;5059165;28;20635;-76
2021/08/04 10:18:17;;;;;;;2.55;1.80;;;;;;;22.00;nan;100248.00;5034104;28;20032;-76
2021/08/04 10:20:44;;;;;;;3.05;1.70;;;;;;;22.06;nan;100245.19;5031294;28;20510;-77
2021/08/04 10:23:15;;;;;;;2.42;1.40;;;;;;;21.95;nan;100255.97;5028634;28;20034;-77
2021/08/04 10:25:42;;;;;;;4.53;1.60;;;;;;;22.25;nan;100256.69;5031994;28;20033;-76
2021/08/04 10:28:08;;;;;;;1.90;1.38;;;;;;;22.30;nan;100257.88;5050024;28;20405;-76
2021/08/04 10:30:34;;;;;;;2.60;1.50;;;;;;;22.34;nan;100265.25;5050112;28;20048;-76
2021/08/04 10:33:00;;;;;;;2.47;1.58;;;;;;;22.05;nan;100262.41;5050385;28;20040;-76
2021/08/04 10:35:27;;;;;;;1.85;1.30;;;;;;;22.02;nan;100253.97;5049565;28;20036;-76
2021/08/04 10:37:53;;;;;;;2.50;1.80;;;;;;;22.07;nan;100246.00;5050160;28;20063;-76
2021/08/04 10:40:19;;;;;;;2.80;2.05;;;;;;;22.20;nan;100248.50;5049542;28;20116;-76
2021/08/04 10:42:46;;;;;;;1.95;1.63;;;;;;;22.11;nan;100243.69;5050460;28;20051;-76
2021/08/04 10:45:22;;;;;;;2.67;1.90;;;;;;;22.23;nan;100234.56;5049556;28;20594;-76
2021/08/04 10:47:48;;;;;;;4.47;2.40;;;;;;;22.48;nan;100238.88;5048101;28;20043;-76
2021/08/04 10:50:13;;;;;;;3.30;2.10;;;;;;;22.50;nan;100234.06;5049489;28;20033;-76
2021/08/04 10:52:57;;;;;;;2.40;1.83;;;;;;;22.56;nan;100235.00;5040716;28;20029;-77
2021/08/04 10:55:27;;;;;;;2.10;1.80;;;;;;;22.62;nan;100234.00;5038110;28;20029;-77
2021/08/04 10:58:04;;;;;;;2.88;1.80;;;;;;;22.80;nan;100225.75;5050282;28;20033;-77
2021/08/04 11:00:31;;;;;;;2.45;1.58;;;;;;;22.80;nan;100225.75;5049479;28;20075;-77
2021/08/04 11:02:56;;;;;;;3.05;1.90;;;;;;;23.11;nan;100224.50;5050207;28;20107;-77
2021/08/04 11:05:22;;;;;;;2.35;1.80;;;;;;;22.89;nan;100216.25;5031867;28;20041;-76
2021/08/04 11:08:18;;;;;;;3.55;1.90;;;;;;;23.20;nan;100207.94;5050010;28;20527;-77
2021/08/04 11:10:45;;;;;;;2.90;2.17;;;;;;;23.16;nan;100212.16;5034874;28;20033;-76
2021/08/04 11:13:11;;;;;;;2.63;1.80;;;;;;;23.06;nan;100216.31;5049375;28;20578;-77
2021/08/04 11:15:36;;;;;;;2.13;1.80;;;;;;;23.04;nan;100207.63;5049390;28;20036;-77
2021/08/04 11:18:10;;;;;;;2.45;1.77;;;;;;;22.78;nan;100205.50;5049382;28;20116;-76
2021/08/04 11:21:08;;;;;;;2.63;2.00;;;;;;;22.90;nan;100201.69;5047981;28;20035;-77
2021/08/04 11:23:46;;;;;;;2.03;1.70;;;;;;;22.87;nan;100194.09;5049815;28;20052;-76
2021/08/04 11:26:27;;;;;;;2.88;1.90;;;;;;;22.74;nan;100199.78;5034001;28;20060;-77
2021/08/04 11:28:53;;;;;;;2.28;1.73;;;;;;;22.86;nan;100203.25;5050367;28;20033;-76
2021/08/04 11:31:19;;;;;;;3.03;2.10;;;;;;;22.89;nan;100204.63;5051258;28;20045;-76
2021/08/04 11:33:45;;;;;;;3.10;2.00;;;;;;;22.71;nan;100194.03;5049766;28;20458;-77
2021/08/04 11:36:14;;;;;;;3.83;1.80;;;;;;;22.82;nan;100203.97;5047829;28;20048;-75
2021/08/04 11:39:04;;;;;;;2.35;1.70;;;;;;;22.43;nan;100201.06;5049077;28;20040;-76
2021/08/04 11:41:33;;;;;;;2.90;1.85;;;;;;;22.59;nan;100199.47;5039631;28;20111;-77
2021/08/04 11:44:11;;;;;;;1.83;1.50;;;;;;;22.93;nan;100197.72;5047661;28;20124;-76
2021/08/04 11:46:40;;;;;;;2.47;1.80;;;;;;;23.07;nan;100200.94;5048807;28;20037;-76
2021/08/04 11:49:09;;;;;;;1.80;1.45;;;;;;;22.96;nan;100191.03;5048694;28;20456;-75
2021/08/04 11:51:52;;;;;;;1.80;1.42;;;;;;;22.81;nan;100184.28;5048010;28;20036;-76
2021/08/04 11:54:31;;;;;;;3.00;1.75;;;;;;;22.60;nan;100179.56;5049583;28;20029;-76
2021/08/04 11:56:57;;;;;;;2.85;1.67;;;;;;;22.98;nan;100183.50;5049695;28;20032;-76
2021/08/04 11:59:22;;;;;;;3.00;1.95;;;;;;;23.17;nan;100184.97;5049476;28;20041;-76
2021/08/04 12:01:55;;;;;;;2.47;1.75;;;;;;;23.16;nan;100188.69;5049368;28;20033;-76
2021/08/04 12:04:21;;;;;;;3.65;2.20;;;;;;;23.56;nan;100195.03;5049133;28;20037;-77
2021/08/04 12:06:56;;;;;;;3.53;2.03;;;;;;;23.75;nan;100199.13;5049400;28;20032;-76
2021/08/04 12:09:29;;;;;;;3.83;2.08;;;;;;;23.80;nan;100207.31;5049744;28;20505;-76
2021/08/04 12:11:56;;;;;;;3.38;1.80;;;;;;;23.77;nan;100213.22;5049367;28;20037;-77
2021/08/04 12:14:22;;;;;;;2.60;1.88;;;;;;;23.68;nan;100210.06;5048864;28;20033;-76
2021/08/04 12:16:54;;;;;;;2.75;1.70;;;;;;;23.65;nan;100204.34;5048829;28;20057;-76
2021/08/04 12:19:36;;;;;;;2.75;2.05;;;;;;;23.74;nan;100211.00;5049843;28;20435;-76
2021/08/04 12:22:03;;;;;;;3.42;2.13;;;;;;;23.71;nan;100201.47;5048342;28;20494;-76
2021/08/04 12:24:29;;;;;;;2.80;1.85;;;;;;;23.58;nan;100185.63;5048965;28;20040;-76
2021/08/04 12:26:55;;;;;;;2.40;1.80;;;;;;;23.34;nan;100186.84;5049319;28;20413;-77